Terminal Aerodrome Forecast
Issued by NWS

Current Version | Previous Version | Text Only | Print | Product List | Glossary On
Versions: 1 2 3 4 5 6 7 8 9 10 11 12
234
FTPA31 PHFO 111734
TAFHJR
TAF
PHJR 111734Z 1118/1218 VRB03KT P6SM FEW025
     FM112000 11008G13KT P6SM FEW030 SCT050
     FM120400 VRB03KT P6SM SCT050=

USA.gov is the U.S. government's official web portal to all federal, state and local government web resources and services.